Time;durP1;ratioP1;P1;durP2;ratioP2;P2;SDS_P1;SDS_P2;PMS_P1;PMS_P2;Temp;Humidity;BMP_temperature;BMP_pressure;BME280_temperature;BME280_humidity;BME280_pressure;Samples;Min_cycle;Max_cycle;Signal;HPM_P1;HPM_P2
2019/12/02 17:50:08;;;;;;;11.7;8.3;;;;;;;8.74;45.05078;968.4849;;;;
2019/12/02 17:52:33;;;;;;;9.1;7.7;;;;;;;5.34;54.85938;968.5219;;;;
2019/12/02 17:54:58;;;;;;;8.7;7.1;;;;;;;4.18;57.94238;968.6128;;;;
2019/12/02 17:57:23;;;;;;;9.5;8.2;;;;;;;4.06;60.33984;968.6027;;;;
2019/12/02 17:59:50;;;;;;;9;8.1;;;;;;;4.16;61.30762;968.5968;;;;
2019/12/02 18:02:15;;;;;;;9.2;7.7;;;;;;;4.11;60.91602;968.6318;;;;
2019/12/02 18:04:40;;;;;;;9.9;8.5;;;;;;;3.47;62.22754;968.6259;;;;
2019/12/02 18:07:09;;;;;;;9.9;8.7;;;;;;;2.89;64.94629;968.6785;;;;
2019/12/02 18:09:35;;;;;;;10.9;9.2;;;;;;;3.12;65.38867;968.7355;;;;
2019/12/02 18:12:00;;;;;;;11;9.7;;;;;;;3.19;65.1377;968.7631;;;;
2019/12/02 18:14:25;;;;;;;11.7;9;;;;;;;3.24;65.24805;968.7322;;;;
2019/12/02 18:19:20;;;;;;;12;10.4;;;;;;;2.77;66.6123;968.7561;;;;
2019/12/02 18:21:41;;;;;;;11.3;10.1;;;;;;;2.56;67.32422;968.8527;;;;
2019/12/02 18:24:06;;;;;;;10.8;9.3;;;;;;;2.67;67.86035;968.8658;;;;
2019/12/02 18:26:31;;;;;;;10.2;8.9;;;;;;;2.56;66.28418;968.937;;;;
2019/12/02 18:28:56;;;;;;;9.6;8.6;;;;;;;2.47;67.52441;968.8856;;;;
2019/12/02 18:31:25;;;;;;;10.9;9.6;;;;;;;2.63;67.42578;968.9131;;;;
2019/12/02 18:33:50;;;;;;;12.1;9.9;;;;;;;2.61;66.54199;968.916;;;;
2019/12/02 18:36:23;;;;;;;12;9.8;;;;;;;2.67;66.45996;968.9097;;;;
2019/12/02 18:38:49;;;;;;;17.1;15.3;;;;;;;2.86;66.71484;968.9306;;;;
2019/12/02 18:41:14;;;;;;;13.5;11;;;;;;;2.56;67.36914;968.972;;;;
2019/12/02 18:43:43;;;;;;;12.5;11.1;;;;;;;2.5;68.31934;968.9888;;;;
2019/12/02 18:46:08;;;;;;;14.3;11.6;;;;;;;2.39;68.65234;969.0276;;;;
2019/12/02 18:48:33;;;;;;;13.4;11;;;;;;;2.48;68.51953;968.9593;;;;
2019/12/02 18:51:00;;;;;;;12.8;11;;;;;;;2.32;68.5498;968.9995;;;;
2019/12/02 18:53:26;;;;;;;15.6;12;;;;;;;2.34;68.83496;969.0477;;;;
2019/12/02 18:55:51;;;;;;;13.8;11.2;;;;;;;2.39;69.97266;969.0598;;;;
2019/12/02 18:58:22;;;;;;;14.7;11;;;;;;;2.68;67.60254;969.0823;;;;
2019/12/02 19:00:47;;;;;;;14.5;11.6;;;;;;;2.68;67.7832;969.0759;;;;
2019/12/02 19:03:12;;;;;;;13.4;11.5;;;;;;;2.8;69.03516;969.0558;;;;
2019/12/02 19:05:37;;;;;;;12.1;10.8;;;;;;;2.58;68.01563;969.1052;;;;
2019/12/02 19:08:02;;;;;;;12.1;10.6;;;;;;;2.43;68.04785;969.1194;;;;
2019/12/02 19:10:33;;;;;;;12.5;10.2;;;;;;;2.4;67.70605;969.0583;;;;
2019/12/02 19:13:16;;;;;;;11.3;10;;;;;;;2.43;68.12793;969.0479;;;;
2019/12/02 19:18:09;;;;;;;11.8;9.4;;;;;;;2.55;68.5752;969.0748;;;;
2019/12/02 19:20:14;;;;;;;11.2;9.3;;;;;;;2.67;67.16016;969.0458;;;;
2019/12/02 19:22:39;;;;;;;11.4;9.3;;;;;;;2.44;67.89258;969.1169;;;;
2019/12/02 19:25:08;;;;;;;12.4;10.1;;;;;;;2.31;68.1875;969.2097;;;;
2019/12/02 19:27:33;;;;;;;12.6;10;;;;;;;2.56;67.14355;969.2391;;;;
2019/12/02 19:30:01;;;;;;;12.7;10.1;;;;;;;2.55;68.03418;969.2626;;;;
2019/12/02 19:32:26;;;;;;;11.3;10.1;;;;;;;2.76;66.88086;969.3041;;;;
2019/12/02 19:34:51;;;;;;;12.7;10.1;;;;;;;2.78;67.24512;969.2762;;;;
2019/12/02 19:37:16;;;;;;;13.3;10.6;;;;;;;2.71;67.79004;969.2481;;;;
2019/12/02 19:39:41;;;;;;;14;11;;;;;;;2.54;68.36035;969.2561;;;;
2019/12/02 19:42:06;;;;;;;13.5;11.2;;;;;;;2.38;69.0791;969.2786;;;;
2019/12/02 19:44:31;;;;;;;11.3;10.1;;;;;;;2.43;69.10938;969.3187;;;;
2019/12/02 19:46:56;;;;;;;11.9;10.6;;;;;;;2.65;69.61914;969.354;;;;
2019/12/02 19:49:21;;;;;;;11.6;10.4;;;;;;;2.56;69.54883;969.4216;;;;
2019/12/02 19:51:46;;;;;;;13.5;10.4;;;;;;;2.72;68.84082;969.397;;;;
2019/12/02 19:54:11;;;;;;;12.8;10.8;;;;;;;2.52;68.0293;969.4152;;;;
2019/12/02 19:56:36;;;;;;;13;10.5;;;;;;;2.79;67.9375;969.3765;;;;
2019/12/02 19:59:01;;;;;;;12.8;10.8;;;;;;;2.58;67.22656;969.4095;;;;
2019/12/02 20:01:26;;;;;;;14.6;11.2;;;;;;;2.51;68.46777;969.4783;;;;
2019/12/02 20:03:52;;;;;;;13.1;10.8;;;;;;;2.53;68.31348;969.467;;;;
2019/12/02 20:06:17;;;;;;;13.5;11.5;;;;;;;2.67;68.34668;969.5228;;;;
2019/12/02 20:08:42;;;;;;;14.3;11.6;;;;;;;2.74;68.82324;969.4391;;;;
2019/12/02 20:11:07;;;;;;;14.1;12.4;;;;;;;2.79;69.38379;969.4415;;;;
2019/12/02 20:13:32;;;;;;;14.5;11.8;;;;;;;2.8;68.42285;969.4933;;;;
2019/12/02 20:15:57;;;;;;;14.6;12.5;;;;;;;2.65;69.43945;969.4749;;;;
2019/12/02 20:18:22;;;;;;;14.4;12.2;;;;;;;2.38;69.56543;969.416;;;;
2019/12/02 20:20:48;;;;;;;15.6;12.9;;;;;;;2.17;70.62598;969.4438;;;;
2019/12/02 20:23:13;;;;;;;14.6;12.4;;;;;;;2.34;70.76563;969.407;;;;
2019/12/02 20:25:44;;;;;;;15.2;12.6;;;;;;;2.44;70.97559;969.4171;;;;
2019/12/02 20:28:10;;;;;;;16.5;13;;;;;;;2.08;70.99316;969.4537;;;;
2019/12/02 20:30:39;;;;;;;13.8;11.7;;;;;;;2.44;70.06055;969.4091;;;;
2019/12/02 20:33:04;;;;;;;15.5;12.5;;;;;;;2.48;69.51367;969.4345;;;;
2019/12/02 20:35:30;;;;;;;13.8;11.8;;;;;;;2.31;70.44531;969.402;;;;
2019/12/02 20:37:55;;;;;;;15.9;12.7;;;;;;;2.21;70.33887;969.3757;;;;
2019/12/02 20:40:20;;;;;;;15.3;12.4;;;;;;;2.28;71.27637;969.3986;;;;
2019/12/02 20:42:48;;;;;;;15.9;13;;;;;;;2.14;70.68945;969.307;;;;
2019/12/02 20:45:21;;;;;;;16.1;13.2;;;;;;;2.24;70.65918;969.3505;;;;
2019/12/02 20:51:57;;;;;;;15.9;13.2;;;;;;;2.02;71.20996;969.394;;;;
2019/12/02 20:52:31;;;;;;;15.1;12.5;;;;;;;2.13;71.31641;969.4252;;;;
2019/12/02 20:54:57;;;;;;;14.1;12.4;;;;;;;2.38;70.6377;969.4677;;;;
2019/12/02 20:57:24;;;;;;;13.3;11.9;;;;;;;2.31;71.06445;969.4291;;;;
2019/12/02 20:59:49;;;;;;;15.2;12.3;;;;;;;2.05;71.2041;969.5889;;;;
2019/12/02 21:02:14;;;;;;;15.1;12.8;;;;;;;2.14;71.60352;969.6103;;;;
2019/12/02 21:04:39;;;;;;;13.3;11.9;;;;;;;2.29;71.35645;969.5292;;;;
2019/12/02 21:07:05;;;;;;;13.8;12.4;;;;;;;2.32;71.48535;969.5223;;;;
2019/12/02 21:09:30;;;;;;;13.7;12.2;;;;;;;2.47;70.99121;969.5443;;;;
2019/12/02 21:11:55;;;;;;;15.5;12.7;;;;;;;2.27;70.95801;969.5631;;;;
2019/12/02 21:14:20;;;;;;;15;13.4;;;;;;;2.23;71.54883;969.6242;;;;
2019/12/02 21:16:45;;;;;;;16.2;13.6;;;;;;;2.31;71.04297;969.8047;;;;
2019/12/02 21:19:10;;;;;;;14.4;12.9;;;;;;;2.49;70.88184;969.8095;;;;
2019/12/02 21:21:35;;;;;;;17.8;15.5;;;;;;;2.37;70.79297;969.8384;;;;
2019/12/02 21:24:00;;;;;;;17.6;15.6;;;;;;;2.47;70.91211;969.9169;;;;
2019/12/02 21:26:25;;;;;;;19.4;16.3;;;;;;;2.09;72.03418;969.9811;;;;
2019/12/02 21:28:50;;;;;;;17.2;15.4;;;;;;;2.15;71.79492;970.0006;;;;
2019/12/02 21:31:16;;;;;;;16.7;13.8;;;;;;;2.15;72.65234;969.9601;;;;
2019/12/02 21:33:41;;;;;;;15.8;14.1;;;;;;;2.05;72.96484;969.8848;;;;
2019/12/02 21:36:06;;;;;;;15.1;13.5;;;;;;;2.16;71.68359;969.8864;;;;
2019/12/02 21:38:31;;;;;;;14.7;12.7;;;;;;;2.16;72.02344;969.9188;;;;
2019/12/02 21:40:56;;;;;;;17.1;14.4;;;;;;;1.99;72.58008;969.9581;;;;
2019/12/02 21:43:21;;;;;;;15.2;13.6;;;;;;;1.87;73.34961;969.9285;;;;
2019/12/02 21:45:46;;;;;;;15.6;13.7;;;;;;;2.03;72.69043;969.8353;;;;
2019/12/02 21:48:16;;;;;;;14.7;12.8;;;;;;;2.25;72.41016;969.762;;;;
2019/12/02 21:50:41;;;;;;;15.6;12.5;;;;;;;2.07;72.15332;969.7943;;;;
2019/12/02 21:53:08;;;;;;;15.8;12.2;;;;;;;2.12;73.05469;969.8085;;;;
2019/12/02 21:55:33;;;;;;;14.1;12.3;;;;;;;2.11;72.2627;969.7494;;;;
2019/12/02 21:57:58;;;;;;;14.6;12.4;;;;;;;2.03;72.98145;969.808;;;;
2019/12/02 22:00:31;;;;;;;14.7;13;;;;;;;1.9;73.0625;969.7852;;;;
2019/12/02 22:05:27;;;;;;;13.9;11.5;;;;;;;2.01;72.87598;969.7877;;;;
2019/12/02 22:07:46;;;;;;;12.8;11.4;;;;;;;2.1;71.85547;969.7748;;;;
2019/12/02 22:10:11;;;;;;;12.5;11.2;;;;;;;2.09;71.68457;969.8109;;;;
2019/12/02 22:12:36;;;;;;;12.1;10.8;;;;;;;1.94;71.9502;969.8574;;;;
2019/12/02 22:15:01;;;;;;;13;10.9;;;;;;;1.98;72.59082;969.8044;;;;
2019/12/02 22:17:26;;;;;;;11.5;10.2;;;;;;;2.07;71.33008;969.7438;;;;
2019/12/02 22:19:51;;;;;;;11.2;10;;;;;;;1.99;71.37305;969.807;;;;
2019/12/02 22:22:19;;;;;;;10.5;9.4;;;;;;;2.06;72.0166;969.7715;;;;
2019/12/02 22:24:44;;;;;;;10.7;9.5;;;;;;;2.09;71.66016;969.8161;;;;
2019/12/02 22:27:09;;;;;;;11.3;9.7;;;;;;;2.11;72.00195;969.877;;;;
2019/12/02 22:29:36;;;;;;;11.5;9.5;;;;;;;2.3;70.86133;969.8765;;;;
2019/12/02 22:32:06;;;;;;;10.4;9.3;;;;;;;2.28;71.91992;969.9108;;;;
2019/12/02 22:34:31;;;;;;;11.6;9.5;;;;;;;2.3;70.78223;969.8826;;;;
2019/12/02 22:36:56;;;;;;;9.9;8.7;;;;;;;2.45;70.19922;969.7751;;;;
2019/12/02 22:39:22;;;;;;;9.9;8.9;;;;;;;2.4;70.17773;969.8131;;;;
2019/12/02 22:41:47;;;;;;;9.8;8.8;;;;;;;2.37;71.06543;969.7599;;;;
2019/12/02 22:44:12;;;;;;;9.7;8.7;;;;;;;2.05;70.74023;969.7302;;;;
2019/12/02 22:46:41;;;;;;;9.7;8.5;;;;;;;2.09;71.45898;969.7183;;;;
2019/12/02 22:49:06;;;;;;;11.9;8.8;;;;;;;2;70.87793;969.7578;;;;
2019/12/02 22:51:31;;;;;;;10.1;8.9;;;;;;;1.86;72.45703;969.7575;;;;
2019/12/02 22:53:58;;;;;;;10.1;9.1;;;;;;;1.83;72.63281;969.7924;;;;
2019/12/02 22:56:23;;;;;;;10.2;8.9;;;;;;;1.92;72.70508;969.7697;;;;
2019/12/02 22:58:49;;;;;;;10.5;8.2;;;;;;;1.92;72.85156;969.8469;;;;
2019/12/02 23:01:14;;;;;;;10.7;8.2;;;;;;;1.93;71.41992;969.8773;;;;
2019/12/02 23:03:39;;;;;;;9.1;8.2;;;;;;;1.86;72.05078;969.951;;;;
2019/12/02 23:06:06;;;;;;;9;8.1;;;;;;;1.95;72.4834;969.9604;;;;
2019/12/02 23:08:32;;;;;;;10;7.8;;;;;;;1.89;72.10059;969.9894;;;;
2019/12/02 23:11:12;;;;;;;9.7;8.3;;;;;;;1.99;73.07617;970.0421;;;;
2019/12/02 23:13:22;;;;;;;9.3;7.6;;;;;;;2.17;71.55176;970.0143;;;;
2019/12/02 23:15:47;;;;;;;8.8;7.9;;;;;;;2;71.80273;970.0545;;;;
2019/12/02 23:18:16;;;;;;;8.4;7.5;;;;;;;2.16;72.1709;970.0876;;;;
2019/12/02 23:20:47;;;;;;;8.4;7.5;;;;;;;2.23;71.50293;970.0854;;;;
2019/12/02 23:23:17;;;;;;;9.4;7.5;;;;;;;2.13;71.83594;970.0876;;;;
2019/12/02 23:25:49;;;;;;;9;7.9;;;;;;;2.21;70.90234;970.0093;;;;
2019/12/02 23:28:20;;;;;;;9.4;8;;;;;;;2.01;72.09961;970.1103;;;;
2019/12/02 23:30:55;;;;;;;9.6;8.1;;;;;;;1.93;71.92773;970.1494;;;;
2019/12/02 23:33:22;;;;;;;9;8.1;;;;;;;1.95;72.12305;970.1463;;;;
2019/12/02 23:35:50;;;;;;;9.3;8;;;;;;;2.19;71.59766;970.0458;;;;
2019/12/02 23:38:15;;;;;;;8.7;7.8;;;;;;;2.43;70.48828;970.0044;;;;
2019/12/02 23:40:40;;;;;;;9.1;8.1;;;;;;;2.26;71.23926;969.8851;;;;
2019/12/02 23:43:11;;;;;;;8.7;7.8;;;;;;;2.33;71.00098;969.8429;;;;
2019/12/02 23:45:39;;;;;;;9.4;8.1;;;;;;;2.2;71.67969;969.8222;;;;
2019/12/02 23:48:04;;;;;;;9.9;8.4;;;;;;;2.07;71.91699;969.6995;;;;
2019/12/02 23:50:29;;;;;;;9.5;8.5;;;;;;;1.78;73.0293;969.6145;;;;
2019/12/02 23:52:55;;;;;;;9.4;8.4;;;;;;;1.81;73.25977;969.6006;;;;
2019/12/02 23:55:20;;;;;;;9.8;8.3;;;;;;;2.02;73.89453;969.5972;;;;
2019/12/02 23:57:45;;;;;;;10;8.9;;;;;;;2.08;72.61914;969.5006;;;;
